sensor_id;sensor_type;location;lat;lon;timestamp;temperature;humidity
13426;DHT22;6785;57.918;12.530;2022-12-11T00:00:42;-5.70;99.90
13426;DHT22;6785;57.918;12.530;2022-12-11T00:03:09;-5.80;99.90
13426;DHT22;6785;57.918;12.530;2022-12-11T00:05:39;-5.90;99.90
13426;DHT22;6785;57.918;12.530;2022-12-11T00:08:07;-5.90;99.90
13426;DHT22;6785;57.918;12.530;2022-12-11T00:10:34;-6.00;99.90
13426;DHT22;6785;57.918;12.530;2022-12-11T00:13:00;-6.00;99.90
13426;DHT22;6785;57.918;12.530;2022-12-11T00:15:27;-6.10;99.90
13426;DHT22;6785;57.918;12.530;2022-12-11T00:17:54;-6.10;99.90
13426;DHT22;6785;57.918;12.530;2022-12-11T00:20:21;-6.10;99.90
13426;DHT22;6785;57.918;12.530;2022-12-11T00:22:49;-6.20;99.90
13426;DHT22;6785;57.918;12.530;2022-12-11T00:25:16;-6.20;99.90
13426;DHT22;6785;57.918;12.530;2022-12-11T00:27:44;-6.30;99.90
13426;DHT22;6785;57.918;12.530;2022-12-11T00:30:12;-6.40;99.90
13426;DHT22;6785;57.918;12.530;2022-12-11T00:32:38;-6.40;99.90
13426;DHT22;6785;57.918;12.530;2022-12-11T00:35:06;-6.50;99.90
13426;DHT22;6785;57.918;12.530;2022-12-11T00:37:32;-6.50;99.90
13426;DHT22;6785;57.918;12.530;2022-12-11T00:40:00;-6.60;99.90
13426;DHT22;6785;57.918;12.530;2022-12-11T00:42:27;-6.60;99.90
13426;DHT22;6785;57.918;12.530;2022-12-11T00:44:54;-6.60;99.90
13426;DHT22;6785;57.918;12.530;2022-12-11T00:47:20;-6.50;99.90
13426;DHT22;6785;57.918;12.530;2022-12-11T00:49:47;-6.50;99.90
13426;DHT22;6785;57.918;12.530;2022-12-11T00:52:14;-6.60;99.90
13426;DHT22;6785;57.918;12.530;2022-12-11T00:54:42;-6.60;99.90
13426;DHT22;6785;57.918;12.530;2022-12-11T00:57:10;-6.60;99.90
13426;DHT22;6785;57.918;12.530;2022-12-11T00:59:37;-6.60;99.90
13426;DHT22;6785;57.918;12.530;2022-12-11T01:02:03;-6.70;99.90
13426;DHT22;6785;57.918;12.530;2022-12-11T01:04:30;-6.70;99.90
13426;DHT22;6785;57.918;12.530;2022-12-11T01:06:57;-6.70;99.90
13426;DHT22;6785;57.918;12.530;2022-12-11T01:09:24;-6.70;99.90
13426;DHT22;6785;57.918;12.530;2022-12-11T01:12:07;-6.80;99.90
13426;DHT22;6785;57.918;12.530;2022-12-11T01:14:36;-6.80;99.90
13426;DHT22;6785;57.918;12.530;2022-12-11T01:17:03;-6.80;99.90
13426;DHT22;6785;57.918;12.530;2022-12-11T01:19:29;-6.80;99.90
13426;DHT22;6785;57.918;12.530;2022-12-11T01:21:56;-6.80;99.90
13426;DHT22;6785;57.918;12.530;2022-12-11T01:24:23;-6.80;99.90
13426;DHT22;6785;57.918;12.530;2022-12-11T01:26:49;-6.90;99.90
13426;DHT22;6785;57.918;12.530;2022-12-11T01:29:16;-7.10;99.90
13426;DHT22;6785;57.918;12.530;2022-12-11T01:31:44;-7.10;99.90
13426;DHT22;6785;57.918;12.530;2022-12-11T01:34:11;-7.20;99.90
13426;DHT22;6785;57.918;12.530;2022-12-11T01:36:38;-7.30;99.90
13426;DHT22;6785;57.918;12.530;2022-12-11T01:39:04;-7.40;99.90
13426;DHT22;6785;57.918;12.530;2022-12-11T01:41:31;-7.30;99.90
13426;DHT22;6785;57.918;12.530;2022-12-11T01:44:00;-7.30;99.90
13426;DHT22;6785;57.918;12.530;2022-12-11T01:46:29;-7.30;99.90
13426;DHT22;6785;57.918;12.530;2022-12-11T01:48:58;-7.20;99.90
13426;DHT22;6785;57.918;12.530;2022-12-11T01:51:26;-7.20;99.90
13426;DHT22;6785;57.918;12.530;2022-12-11T01:53:59;-7.10;99.90
13426;DHT22;6785;57.918;12.530;2022-12-11T01:56:30;-7.00;99.90
13426;DHT22;6785;57.918;12.530;2022-12-11T01:59:01;-7.00;99.90
13426;DHT22;6785;57.918;12.530;2022-12-11T02:01:33;-7.00;99.90
13426;DHT22;6785;57.918;12.530;2022-12-11T02:04:02;-7.00;99.90
13426;DHT22;6785;57.918;12.530;2022-12-11T02:06:31;-7.00;99.90
13426;DHT22;6785;57.918;12.530;2022-12-11T02:08:59;-7.00;99.90
13426;DHT22;6785;57.918;12.530;2022-12-11T02:11:32;-7.00;99.90
13426;DHT22;6785;57.918;12.530;2022-12-11T02:14:05;-7.00;99.90
13426;DHT22;6785;57.918;12.530;2022-12-11T02:16:38;-7.00;99.90
13426;DHT22;6785;57.918;12.530;2022-12-11T02:19:20;-6.90;99.90
13426;DHT22;6785;57.918;12.530;2022-12-11T02:21:54;-6.90;99.90
13426;DHT22;6785;57.918;12.530;2022-12-11T02:24:33;-6.80;99.90
13426;DHT22;6785;57.918;12.530;2022-12-11T02:27:16;-6.80;99.90
13426;DHT22;6785;57.918;12.530;2022-12-11T02:29:50;-6.80;99.90
13426;DHT22;6785;57.918;12.530;2022-12-11T02:32:21;-6.80;99.90
13426;DHT22;6785;57.918;12.530;2022-12-11T02:34:56;-6.80;99.90
13426;DHT22;6785;57.918;12.530;2022-12-11T02:37:26;-6.80;99.90
13426;DHT22;6785;57.918;12.530;2022-12-11T02:39:56;-6.90;99.90
13426;DHT22;6785;57.918;12.530;2022-12-11T02:42:27;-6.80;99.90
13426;DHT22;6785;57.918;12.530;2022-12-11T02:44:58;-6.80;99.90
13426;DHT22;6785;57.918;12.530;2022-12-11T02:47:28;-6.70;99.90
13426;DHT22;6785;57.918;12.530;2022-12-11T02:49:58;-6.70;99.90
13426;DHT22;6785;57.918;12.530;2022-12-11T02:52:28;-6.80;99.90
13426;DHT22;6785;57.918;12.530;2022-12-11T02:54:57;-6.80;99.90
13426;DHT22;6785;57.918;12.530;2022-12-11T02:57:27;-6.80;99.90
13426;DHT22;6785;57.918;12.530;2022-12-11T02:59:58;-6.70;99.90
13426;DHT22;6785;57.918;12.530;2022-12-11T03:02:25;-6.70;99.90
13426;DHT22;6785;57.918;12.530;2022-12-11T03:04:52;-6.60;99.90
13426;DHT22;6785;57.918;12.530;2022-12-11T03:07:22;-6.50;99.90
13426;DHT22;6785;57.918;12.530;2022-12-11T03:09:50;-6.50;99.90
13426;DHT22;6785;57.918;12.530;2022-12-11T03:12:19;-6.50;99.90
13426;DHT22;6785;57.918;12.530;2022-12-11T03:14:48;-6.40;99.90
13426;DHT22;6785;57.918;12.530;2022-12-11T03:17:20;-6.40;99.90
13426;DHT22;6785;57.918;12.530;2022-12-11T03:19:54;-6.40;99.90
13426;DHT22;6785;57.918;12.530;2022-12-11T03:22:27;-6.30;99.90
13426;DHT22;6785;57.918;12.530;2022-12-11T03:25:00;-6.30;99.90
13426;DHT22;6785;57.918;12.530;2022-12-11T03:27:32;-6.30;99.90
13426;DHT22;6785;57.918;12.530;2022-12-11T03:30:05;-6.30;99.90
13426;DHT22;6785;57.918;12.530;2022-12-11T03:32:38;-6.20;99.90
13426;DHT22;6785;57.918;12.530;2022-12-11T03:35:10;-6.20;99.90
13426;DHT22;6785;57.918;12.530;2022-12-11T03:37:40;-6.30;99.90
13426;DHT22;6785;57.918;12.530;2022-12-11T03:40:11;-6.40;99.90
13426;DHT22;6785;57.918;12.530;2022-12-11T03:42:39;-6.40;99.90
13426;DHT22;6785;57.918;12.530;2022-12-11T03:45:08;-6.40;99.90
13426;DHT22;6785;57.918;12.530;2022-12-11T03:47:37;-6.40;99.90
13426;DHT22;6785;57.918;12.530;2022-12-11T03:50:07;-6.30;99.90
13426;DHT22;6785;57.918;12.530;2022-12-11T03:52:35;-6.30;99.90
13426;DHT22;6785;57.918;12.530;2022-12-11T03:55:04;-6.30;99.90
13426;DHT22;6785;57.918;12.530;2022-12-11T03:57:34;-6.20;99.90
13426;DHT22;6785;57.918;12.530;2022-12-11T04:00:03;-6.20;99.90
13426;DHT22;6785;57.918;12.530;2022-12-11T04:02:30;-6.20;99.90
13426;DHT22;6785;57.918;12.530;2022-12-11T04:04:58;-6.20;99.90
13426;DHT22;6785;57.918;12.530;2022-12-11T04:07:25;-6.10;99.90
13426;DHT22;6785;57.918;12.530;2022-12-11T04:09:53;-6.10;99.90
13426;DHT22;6785;57.918;12.530;2022-12-11T04:12:20;-6.10;99.90
13426;DHT22;6785;57.918;12.530;2022-12-11T04:14:47;-6.00;99.90
13426;DHT22;6785;57.918;12.530;2022-12-11T04:17:29;-5.90;99.90
13426;DHT22;6785;57.918;12.530;2022-12-11T04:20:16;-6.00;99.90
13426;DHT22;6785;57.918;12.530;2022-12-11T04:23:03;-6.00;99.90
13426;DHT22;6785;57.918;12.530;2022-12-11T04:25:47;-5.90;99.90
13426;DHT22;6785;57.918;12.530;2022-12-11T04:28:14;-5.90;99.90
13426;DHT22;6785;57.918;12.530;2022-12-11T04:30:40;-5.90;99.90
13426;DHT22;6785;57.918;12.530;2022-12-11T04:33:12;-5.80;99.90
13426;DHT22;6785;57.918;12.530;2022-12-11T04:35:40;-5.90;99.90
13426;DHT22;6785;57.918;12.530;2022-12-11T04:38:07;-5.90;99.90
13426;DHT22;6785;57.918;12.530;2022-12-11T04:40:34;-6.00;99.90
13426;DHT22;6785;57.918;12.530;2022-12-11T04:43:00;-6.00;99.90
13426;DHT22;6785;57.918;12.530;2022-12-11T04:45:27;-6.00;99.90
13426;DHT22;6785;57.918;12.530;2022-12-11T04:47:54;-6.00;99.90
13426;DHT22;6785;57.918;12.530;2022-12-11T04:50:21;-6.00;99.90
13426;DHT22;6785;57.918;12.530;2022-12-11T04:52:49;-6.10;99.90
13426;DHT22;6785;57.918;12.530;2022-12-11T04:55:15;-6.00;99.90
13426;DHT22;6785;57.918;12.530;2022-12-11T04:57:42;-6.00;99.90
13426;DHT22;6785;57.918;12.530;2022-12-11T05:00:10;-5.90;99.90
13426;DHT22;6785;57.918;12.530;2022-12-11T05:02:39;-5.80;99.90
13426;DHT22;6785;57.918;12.530;2022-12-11T05:05:08;-5.70;99.90
13426;DHT22;6785;57.918;12.530;2022-12-11T05:07:35;-5.70;99.90
13426;DHT22;6785;57.918;12.530;2022-12-11T05:10:05;-5.60;99.90
13426;DHT22;6785;57.918;12.530;2022-12-11T05:12:32;-5.70;99.90
13426;DHT22;6785;57.918;12.530;2022-12-11T05:14:59;-5.70;99.90
13426;DHT22;6785;57.918;12.530;2022-12-11T05:17:25;-5.70;99.90
13426;DHT22;6785;57.918;12.530;2022-12-11T05:19:52;-5.60;99.90
13426;DHT22;6785;57.918;12.530;2022-12-11T05:22:19;-5.60;99.90
13426;DHT22;6785;57.918;12.530;2022-12-11T05:24:46;-5.60;99.90
13426;DHT22;6785;57.918;12.530;2022-12-11T05:27:14;-5.60;99.90
13426;DHT22;6785;57.918;12.530;2022-12-11T05:29:41;-5.70;99.90
13426;DHT22;6785;57.918;12.530;2022-12-11T05:32:07;-5.80;99.90
13426;DHT22;6785;57.918;12.530;2022-12-11T05:34:34;-5.80;99.90
13426;DHT22;6785;57.918;12.530;2022-12-11T05:37:01;-5.70;99.90
13426;DHT22;6785;57.918;12.530;2022-12-11T05:39:28;-5.70;99.90
13426;DHT22;6785;57.918;12.530;2022-12-11T05:41:54;-5.60;99.90
13426;DHT22;6785;57.918;12.530;2022-12-11T05:44:23;-5.60;99.90
13426;DHT22;6785;57.918;12.530;2022-12-11T05:46:49;-5.50;99.90
13426;DHT22;6785;57.918;12.530;2022-12-11T05:49:16;-5.50;99.90
13426;DHT22;6785;57.918;12.530;2022-12-11T05:51:43;-5.60;99.90
13426;DHT22;6785;57.918;12.530;2022-12-11T05:54:10;-5.60;99.90
13426;DHT22;6785;57.918;12.530;2022-12-11T05:56:37;-5.60;99.90
13426;DHT22;6785;57.918;12.530;2022-12-11T05:59:05;-5.60;99.90
13426;DHT22;6785;57.918;12.530;2022-12-11T06:01:35;-5.50;99.90
13426;DHT22;6785;57.918;12.530;2022-12-11T06:04:03;-5.60;99.90
13426;DHT22;6785;57.918;12.530;2022-12-11T06:06:31;-5.70;99.90
13426;DHT22;6785;57.918;12.530;2022-12-11T06:08:59;-5.70;99.90
13426;DHT22;6785;57.918;12.530;2022-12-11T06:11:29;-5.70;99.90
13426;DHT22;6785;57.918;12.530;2022-12-11T06:13:56;-5.60;99.90
13426;DHT22;6785;57.918;12.530;2022-12-11T06:16:23;-5.60;99.90
13426;DHT22;6785;57.918;12.530;2022-12-11T06:18:52;-5.70;99.90
13426;DHT22;6785;57.918;12.530;2022-12-11T06:21:21;-5.60;99.90
13426;DHT22;6785;57.918;12.530;2022-12-11T06:23:50;-5.60;99.90
13426;DHT22;6785;57.918;12.530;2022-12-11T06:26:17;-5.60;99.90
13426;DHT22;6785;57.918;12.530;2022-12-11T06:28:46;-5.60;99.90
13426;DHT22;6785;57.918;12.530;2022-12-11T06:31:13;-5.60;99.90
13426;DHT22;6785;57.918;12.530;2022-12-11T06:33:40;-5.60;99.90
13426;DHT22;6785;57.918;12.530;2022-12-11T06:36:10;-5.50;99.90
13426;DHT22;6785;57.918;12.530;2022-12-11T06:38:38;-5.50;99.90
13426;DHT22;6785;57.918;12.530;2022-12-11T06:41:06;-5.40;99.90
13426;DHT22;6785;57.918;12.530;2022-12-11T06:43:34;-5.40;99.90
13426;DHT22;6785;57.918;12.530;2022-12-11T06:46:03;-5.40;99.90
13426;DHT22;6785;57.918;12.530;2022-12-11T06:48:29;-5.30;99.90
13426;DHT22;6785;57.918;12.530;2022-12-11T06:50:56;-5.40;99.90
13426;DHT22;6785;57.918;12.530;2022-12-11T06:53:24;-5.40;99.90
13426;DHT22;6785;57.918;12.530;2022-12-11T06:55:51;-5.30;99.90
13426;DHT22;6785;57.918;12.530;2022-12-11T07:05:02;-5.40;99.90
13426;DHT22;6785;57.918;12.530;2022-12-11T07:07:29;-5.40;99.90
13426;DHT22;6785;57.918;12.530;2022-12-11T07:09:57;-5.40;99.90
13426;DHT22;6785;57.918;12.530;2022-12-11T07:12:24;-5.30;99.90
13426;DHT22;6785;57.918;12.530;2022-12-11T07:14:50;-5.30;99.90
13426;DHT22;6785;57.918;12.530;2022-12-11T07:17:17;-5.30;99.90
13426;DHT22;6785;57.918;12.530;2022-12-11T07:19:44;-5.30;99.90
13426;DHT22;6785;57.918;12.530;2022-12-11T07:22:11;-5.30;99.90
13426;DHT22;6785;57.918;12.530;2022-12-11T07:24:37;-5.20;99.90
13426;DHT22;6785;57.918;12.530;2022-12-11T07:27:05;-5.30;99.90
13426;DHT22;6785;57.918;12.530;2022-12-11T07:29:33;-5.30;99.90
13426;DHT22;6785;57.918;12.530;2022-12-11T07:31:59;-5.30;99.90
13426;DHT22;6785;57.918;12.530;2022-12-11T07:34:26;-5.30;99.90
13426;DHT22;6785;57.918;12.530;2022-12-11T07:36:53;-5.30;99.90
13426;DHT22;6785;57.918;12.530;2022-12-11T07:39:20;-5.20;99.90
13426;DHT22;6785;57.918;12.530;2022-12-11T07:41:46;-5.20;99.90
13426;DHT22;6785;57.918;12.530;2022-12-11T07:44:14;-5.20;99.90
13426;DHT22;6785;57.918;12.530;2022-12-11T07:46:41;-5.10;99.90
13426;DHT22;6785;57.918;12.530;2022-12-11T07:49:08;-5.10;99.90
13426;DHT22;6785;57.918;12.530;2022-12-11T07:51:36;-5.20;99.90
13426;DHT22;6785;57.918;12.530;2022-12-11T07:54:05;-5.20;99.90
13426;DHT22;6785;57.918;12.530;2022-12-11T07:56:33;-5.20;99.90
13426;DHT22;6785;57.918;12.530;2022-12-11T07:59:01;-5.20;99.90
13426;DHT22;6785;57.918;12.530;2022-12-11T08:01:32;-5.10;99.90
13426;DHT22;6785;57.918;12.530;2022-12-11T08:04:00;-5.10;99.90
13426;DHT22;6785;57.918;12.530;2022-12-11T08:06:28;-5.20;99.90
13426;DHT22;6785;57.918;12.530;2022-12-11T08:08:56;-5.20;99.90
13426;DHT22;6785;57.918;12.530;2022-12-11T08:11:24;-5.20;99.90
13426;DHT22;6785;57.918;12.530;2022-12-11T08:13:51;-5.20;99.90
13426;DHT22;6785;57.918;12.530;2022-12-11T08:16:19;-5.20;99.90
13426;DHT22;6785;57.918;12.530;2022-12-11T08:18:47;-5.20;99.90
13426;DHT22;6785;57.918;12.530;2022-12-11T08:21:15;-5.20;99.90
13426;DHT22;6785;57.918;12.530;2022-12-11T08:23:43;-5.10;99.90
13426;DHT22;6785;57.918;12.530;2022-12-11T08:26:12;-5.00;99.90
13426;DHT22;6785;57.918;12.530;2022-12-11T08:28:39;-5.10;99.90
13426;DHT22;6785;57.918;12.530;2022-12-11T08:31:07;-5.10;99.90
13426;DHT22;6785;57.918;12.530;2022-12-11T08:33:35;-5.10;99.90
13426;DHT22;6785;57.918;12.530;2022-12-11T08:36:05;-5.20;99.90
13426;DHT22;6785;57.918;12.530;2022-12-11T08:38:32;-5.20;99.90
13426;DHT22;6785;57.918;12.530;2022-12-11T08:41:07;-5.20;99.90
13426;DHT22;6785;57.918;12.530;2022-12-11T08:43:34;-5.30;99.90
13426;DHT22;6785;57.918;12.530;2022-12-11T08:46:01;-5.20;99.90
13426;DHT22;6785;57.918;12.530;2022-12-11T08:48:27;-5.20;99.90
13426;DHT22;6785;57.918;12.530;2022-12-11T08:50:54;-5.10;99.90
13426;DHT22;6785;57.918;12.530;2022-12-11T08:53:25;-5.10;99.90
13426;DHT22;6785;57.918;12.530;2022-12-11T08:55:52;-5.10;99.90
13426;DHT22;6785;57.918;12.530;2022-12-11T08:58:19;-5.10;99.90
13426;DHT22;6785;57.918;12.530;2022-12-11T09:00:46;-5.10;99.90
13426;DHT22;6785;57.918;12.530;2022-12-11T09:03:12;-5.10;99.90
13426;DHT22;6785;57.918;12.530;2022-12-11T09:05:39;-5.00;99.90
13426;DHT22;6785;57.918;12.530;2022-12-11T09:08:06;-5.00;99.90
13426;DHT22;6785;57.918;12.530;2022-12-11T09:10:34;-5.00;99.90
13426;DHT22;6785;57.918;12.530;2022-12-11T09:13:00;-4.90;99.90
13426;DHT22;6785;57.918;12.530;2022-12-11T09:15:27;-4.90;99.90
13426;DHT22;6785;57.918;12.530;2022-12-11T09:17:54;-4.80;99.90
13426;DHT22;6785;57.918;12.530;2022-12-11T09:20:21;-4.80;99.90
13426;DHT22;6785;57.918;12.530;2022-12-11T09:22:47;-4.70;99.90
13426;DHT22;6785;57.918;12.530;2022-12-11T09:25:14;-4.70;99.90
13426;DHT22;6785;57.918;12.530;2022-12-11T09:27:42;-4.70;99.90
13426;DHT22;6785;57.918;12.530;2022-12-11T09:30:10;-4.70;99.90
13426;DHT22;6785;57.918;12.530;2022-12-11T09:32:36;-4.70;99.90
13426;DHT22;6785;57.918;12.530;2022-12-11T09:35:05;-4.70;99.90
13426;DHT22;6785;57.918;12.530;2022-12-11T09:37:32;-4.60;99.90
13426;DHT22;6785;57.918;12.530;2022-12-11T09:40:02;-4.70;99.90
13426;DHT22;6785;57.918;12.530;2022-12-11T09:42:36;-4.70;99.90
13426;DHT22;6785;57.918;12.530;2022-12-11T09:45:13;-4.60;99.90
13426;DHT22;6785;57.918;12.530;2022-12-11T09:47:43;-4.70;99.90
13426;DHT22;6785;57.918;12.530;2022-12-11T09:50:16;-4.80;99.90
13426;DHT22;6785;57.918;12.530;2022-12-11T09:52:53;-4.80;99.90
13426;DHT22;6785;57.918;12.530;2022-12-11T09:55:24;-4.80;99.90
13426;DHT22;6785;57.918;12.530;2022-12-11T09:57:56;-4.80;99.90
13426;DHT22;6785;57.918;12.530;2022-12-11T10:00:31;-4.70;99.90
13426;DHT22;6785;57.918;12.530;2022-12-11T10:03:27;-4.70;99.90
13426;DHT22;6785;57.918;12.530;2022-12-11T10:06:02;-4.60;99.90
13426;DHT22;6785;57.918;12.530;2022-12-11T10:08:32;-4.60;99.90
13426;DHT22;6785;57.918;12.530;2022-12-11T10:11:06;-4.50;99.90
13426;DHT22;6785;57.918;12.530;2022-12-11T10:13:48;-4.60;99.90
13426;DHT22;6785;57.918;12.530;2022-12-11T10:16:24;-4.50;99.90
13426;DHT22;6785;57.918;12.530;2022-12-11T10:18:57;-4.60;99.90
13426;DHT22;6785;57.918;12.530;2022-12-11T10:21:24;-4.50;99.90
13426;DHT22;6785;57.918;12.530;2022-12-11T10:23:55;-4.50;99.90
13426;DHT22;6785;57.918;12.530;2022-12-11T10:26:22;-4.50;99.90
13426;DHT22;6785;57.918;12.530;2022-12-11T10:28:49;-4.50;99.90
13426;DHT22;6785;57.918;12.530;2022-12-11T10:31:19;-4.60;99.90
13426;DHT22;6785;57.918;12.530;2022-12-11T10:33:56;-4.60;99.90
13426;DHT22;6785;57.918;12.530;2022-12-11T10:36:27;-4.50;99.90
13426;DHT22;6785;57.918;12.530;2022-12-11T10:38:54;-4.50;99.90
13426;DHT22;6785;57.918;12.530;2022-12-11T10:41:23;-4.50;99.90
13426;DHT22;6785;57.918;12.530;2022-12-11T10:43:51;-4.40;99.90
13426;DHT22;6785;57.918;12.530;2022-12-11T10:46:22;-4.30;99.90
13426;DHT22;6785;57.918;12.530;2022-12-11T10:48:51;-4.20;99.90
13426;DHT22;6785;57.918;12.530;2022-12-11T10:51:20;-4.10;99.90
13426;DHT22;6785;57.918;12.530;2022-12-11T10:53:51;-4.10;99.90
13426;DHT22;6785;57.918;12.530;2022-12-11T10:56:25;-4.10;99.90
13426;DHT22;6785;57.918;12.530;2022-12-11T10:58:54;-4.00;99.90
13426;DHT22;6785;57.918;12.530;2022-12-11T11:01:24;-4.10;99.90
13426;DHT22;6785;57.918;12.530;2022-12-11T11:03:57;-4.10;99.90
13426;DHT22;6785;57.918;12.530;2022-12-11T11:06:26;-4.00;99.90
13426;DHT22;6785;57.918;12.530;2022-12-11T11:08:55;-4.00;99.90
13426;DHT22;6785;57.918;12.530;2022-12-11T11:11:25;-4.00;99.90
13426;DHT22;6785;57.918;12.530;2022-12-11T11:14:04;-4.00;99.90
13426;DHT22;6785;57.918;12.530;2022-12-11T11:16:35;-4.00;99.90
13426;DHT22;6785;57.918;12.530;2022-12-11T11:19:03;-3.90;99.90
13426;DHT22;6785;57.918;12.530;2022-12-11T11:21:30;-3.80;99.90
13426;DHT22;6785;57.918;12.530;2022-12-11T11:23:57;-3.80;99.90
13426;DHT22;6785;57.918;12.530;2022-12-11T11:26:24;-3.80;99.90
13426;DHT22;6785;57.918;12.530;2022-12-11T11:28:52;-3.90;99.90
13426;DHT22;6785;57.918;12.530;2022-12-11T11:31:21;-3.90;99.90
13426;DHT22;6785;57.918;12.530;2022-12-11T11:33:58;-3.90;99.90
13426;DHT22;6785;57.918;12.530;2022-12-11T11:36:29;-3.90;99.90
13426;DHT22;6785;57.918;12.530;2022-12-11T11:39:12;-4.00;99.90
13426;DHT22;6785;57.918;12.530;2022-12-11T11:41:48;-3.90;99.90
13426;DHT22;6785;57.918;12.530;2022-12-11T11:44:20;-4.00;99.90
13426;DHT22;6785;57.918;12.530;2022-12-11T11:46:55;-4.00;99.90
13426;DHT22;6785;57.918;12.530;2022-12-11T11:49:31;-4.00;99.90
13426;DHT22;6785;57.918;12.530;2022-12-11T11:52:11;-4.00;99.90
13426;DHT22;6785;57.918;12.530;2022-12-11T11:54:47;-4.00;99.90
13426;DHT22;6785;57.918;12.530;2022-12-11T11:57:22;-4.00;99.90
13426;DHT22;6785;57.918;12.530;2022-12-11T11:59:54;-3.90;99.90
13426;DHT22;6785;57.918;12.530;2022-12-11T12:02:23;-3.90;99.90
13426;DHT22;6785;57.918;12.530;2022-12-11T12:04:51;-3.80;99.90
13426;DHT22;6785;57.918;12.530;2022-12-11T12:07:28;-3.70;99.90
13426;DHT22;6785;57.918;12.530;2022-12-11T12:10:05;-3.70;99.90
13426;DHT22;6785;57.918;12.530;2022-12-11T12:12:41;-3.70;99.90
13426;DHT22;6785;57.918;12.530;2022-12-11T12:15:18;-3.70;99.90
13426;DHT22;6785;57.918;12.530;2022-12-11T12:17:51;-3.70;99.90
13426;DHT22;6785;57.918;12.530;2022-12-11T12:20:25;-3.60;99.90
13426;DHT22;6785;57.918;12.530;2022-12-11T12:23:07;-3.80;99.90
13426;DHT22;6785;57.918;12.530;2022-12-11T12:25:41;-3.80;99.90
13426;DHT22;6785;57.918;12.530;2022-12-11T12:28:17;-3.80;99.90
13426;DHT22;6785;57.918;12.530;2022-12-11T12:30:58;-3.90;99.90
13426;DHT22;6785;57.918;12.530;2022-12-11T12:33:36;-3.80;99.90
13426;DHT22;6785;57.918;12.530;2022-12-11T12:36:14;-3.90;99.90
13426;DHT22;6785;57.918;12.530;2022-12-11T12:38:49;-4.00;99.90
13426;DHT22;6785;57.918;12.530;2022-12-11T12:41:22;-4.00;99.90
13426;DHT22;6785;57.918;12.530;2022-12-11T12:44:05;-4.00;99.90
13426;DHT22;6785;57.918;12.530;2022-12-11T12:46:48;-4.10;99.90
13426;DHT22;6785;57.918;12.530;2022-12-11T12:49:31;-4.10;99.90
13426;DHT22;6785;57.918;12.530;2022-12-11T12:52:02;-4.00;99.90
13426;DHT22;6785;57.918;12.530;2022-12-11T12:54:31;-4.00;99.90
13426;DHT22;6785;57.918;12.530;2022-12-11T12:56:59;-4.00;99.90
13426;DHT22;6785;57.918;12.530;2022-12-11T12:59:28;-3.90;99.90
13426;DHT22;6785;57.918;12.530;2022-12-11T13:01:56;-3.90;99.90
13426;DHT22;6785;57.918;12.530;2022-12-11T13:04:39;-4.00;99.90
13426;DHT22;6785;57.918;12.530;2022-12-11T13:07:15;-4.00;99.90
13426;DHT22;6785;57.918;12.530;2022-12-11T13:09:43;-4.00;99.90
13426;DHT22;6785;57.918;12.530;2022-12-11T13:12:31;-4.00;99.90
13426;DHT22;6785;57.918;12.530;2022-12-11T13:14:59;-4.10;99.90
13426;DHT22;6785;57.918;12.530;2022-12-11T13:17:35;-4.10;99.90
13426;DHT22;6785;57.918;12.530;2022-12-11T13:20:15;-4.10;99.90
13426;DHT22;6785;57.918;12.530;2022-12-11T13:23:13;-4.10;99.90
13426;DHT22;6785;57.918;12.530;2022-12-11T13:25:49;-4.20;99.90
13426;DHT22;6785;57.918;12.530;2022-12-11T13:28:23;-4.20;99.90
13426;DHT22;6785;57.918;12.530;2022-12-11T13:31:33;-4.30;99.90
13426;DHT22;6785;57.918;12.530;2022-12-11T13:34:12;-4.30;99.90
13426;DHT22;6785;57.918;12.530;2022-12-11T13:36:45;-4.40;99.90
13426;DHT22;6785;57.918;12.530;2022-12-11T13:39:18;-4.30;99.90
13426;DHT22;6785;57.918;12.530;2022-12-11T13:41:46;-4.20;99.90
13426;DHT22;6785;57.918;12.530;2022-12-11T13:44:18;-4.30;99.90
13426;DHT22;6785;57.918;12.530;2022-12-11T13:46:48;-4.20;99.90
13426;DHT22;6785;57.918;12.530;2022-12-11T13:49:22;-4.30;99.90
13426;DHT22;6785;57.918;12.530;2022-12-11T13:51:54;-4.20;99.90
13426;DHT22;6785;57.918;12.530;2022-12-11T13:54:23;-4.30;99.90
13426;DHT22;6785;57.918;12.530;2022-12-11T13:56:55;-4.30;99.90
13426;DHT22;6785;57.918;12.530;2022-12-11T13:59:25;-4.30;99.90
13426;DHT22;6785;57.918;12.530;2022-12-11T14:01:55;-4.30;99.90
13426;DHT22;6785;57.918;12.530;2022-12-11T14:04:24;-4.40;99.90
13426;DHT22;6785;57.918;12.530;2022-12-11T14:06:52;-4.40;99.90
13426;DHT22;6785;57.918;12.530;2022-12-11T14:09:24;-4.40;99.90
13426;DHT22;6785;57.918;12.530;2022-12-11T14:11:53;-4.40;99.90
13426;DHT22;6785;57.918;12.530;2022-12-11T14:14:23;-4.50;99.90
13426;DHT22;6785;57.918;12.530;2022-12-11T14:16:51;-4.50;99.90
13426;DHT22;6785;57.918;12.530;2022-12-11T14:19:19;-4.50;99.90
13426;DHT22;6785;57.918;12.530;2022-12-11T14:21:58;-4.50;99.90
13426;DHT22;6785;57.918;12.530;2022-12-11T14:24:28;-4.50;99.90
13426;DHT22;6785;57.918;12.530;2022-12-11T14:26:55;-4.50;99.90
13426;DHT22;6785;57.918;12.530;2022-12-11T14:29:30;-4.50;99.90
13426;DHT22;6785;57.918;12.530;2022-12-11T14:32:01;-4.50;99.90
13426;DHT22;6785;57.918;12.530;2022-12-11T14:34:32;-4.50;99.90
13426;DHT22;6785;57.918;12.530;2022-12-11T14:37:03;-4.50;99.90
13426;DHT22;6785;57.918;12.530;2022-12-11T14:39:34;-4.60;99.90
13426;DHT22;6785;57.918;12.530;2022-12-11T14:42:09;-4.60;99.90
13426;DHT22;6785;57.918;12.530;2022-12-11T14:44:46;-4.60;99.90
13426;DHT22;6785;57.918;12.530;2022-12-11T14:47:17;-4.60;99.90
13426;DHT22;6785;57.918;12.530;2022-12-11T14:49:48;-4.70;99.90
13426;DHT22;6785;57.918;12.530;2022-12-11T14:52:18;-4.70;99.90
13426;DHT22;6785;57.918;12.530;2022-12-11T14:54:49;-4.70;99.90
13426;DHT22;6785;57.918;12.530;2022-12-11T14:57:20;-4.70;99.90
13426;DHT22;6785;57.918;12.530;2022-12-11T14:59:49;-4.70;99.90
13426;DHT22;6785;57.918;12.530;2022-12-11T15:02:23;-4.70;99.90
13426;DHT22;6785;57.918;12.530;2022-12-11T15:05:00;-4.60;99.90
13426;DHT22;6785;57.918;12.530;2022-12-11T15:07:28;-4.70;99.90
13426;DHT22;6785;57.918;12.530;2022-12-11T15:09:56;-4.80;99.90
13426;DHT22;6785;57.918;12.530;2022-12-11T15:12:23;-4.80;99.90
13426;DHT22;6785;57.918;12.530;2022-12-11T15:14:52;-4.90;99.90
13426;DHT22;6785;57.918;12.530;2022-12-11T15:17:21;-4.90;99.90
13426;DHT22;6785;57.918;12.530;2022-12-11T15:19:50;-5.00;99.90
13426;DHT22;6785;57.918;12.530;2022-12-11T15:22:19;-5.10;99.90
13426;DHT22;6785;57.918;12.530;2022-12-11T15:24:49;-5.10;99.90
13426;DHT22;6785;57.918;12.530;2022-12-11T15:27:24;-5.20;99.90
13426;DHT22;6785;57.918;12.530;2022-12-11T15:29:51;-5.30;99.90
13426;DHT22;6785;57.918;12.530;2022-12-11T15:32:19;-5.40;99.90
13426;DHT22;6785;57.918;12.530;2022-12-11T15:34:48;-5.50;99.90
13426;DHT22;6785;57.918;12.530;2022-12-11T15:37:20;-5.50;99.90
13426;DHT22;6785;57.918;12.530;2022-12-11T15:39:47;-5.60;99.90
13426;DHT22;6785;57.918;12.530;2022-12-11T15:42:21;-5.60;99.90
13426;DHT22;6785;57.918;12.530;2022-12-11T15:44:49;-5.70;99.90
13426;DHT22;6785;57.918;12.530;2022-12-11T15:47:21;-5.70;99.90
13426;DHT22;6785;57.918;12.530;2022-12-11T15:49:48;-5.70;99.90
13426;DHT22;6785;57.918;12.530;2022-12-11T15:52:15;-5.80;99.90
13426;DHT22;6785;57.918;12.530;2022-12-11T15:54:41;-5.70;99.90